Alton, TX

8:51 AM CDT on June 03, 2015 (GMT -0500)
McAllen Miller International | | Change Station
CLOSE
Current Station
Airport
Location: McAllen,
Elevation: 105 ft
Nearby Weather Stations

Elev 105 ft 26.18 °N, 98.24 °W | Updated 12 minutes ago

Clear
Clear
80 °F
Feels Like 84 °F
N
8
Wind Variable Wind from SE

Today
High -- | Low -- °F
--% Chance of Precip.
Yesterday
High -- | Low -- °F
Precip. -- in
6:40 AM 8:22 PM
Full, 99% visible
Pressure 29.91 in
Visibility 10.0 miles
Clouds Few 800 ft
Heat Index 84 °F
Dew Point 74 °F
Humidity 81%
Rainfall 0.00 in
Snow Depth Not available.
UV 2 out of 12
Pollen 6.10 out of 12
Air Quality Not available.
Flu Activity Local Activity
SPECI KMFE 031339Z 13007KT 10SM FEW008 27/23 A2991 RMK AO2 T02670233

More Conditions Fewer Conditions

Pressure 29.91 in
Visibility 10.0 miles
Clouds Few 800 ft
Heat Index 84 °F
Dew Point 74 °F
Humidity 81%
Rainfall 0.00 in
Snow Depth Not available.
UV 2 out of 12
Pollen 6.10 out of 12
Air Quality Not available.
Flu Activity Local Activity
SPECI KMFE 031339Z 13007KT 10SM FEW008 27/23 A2991 RMK AO2 T02670233

More Conditions Fewer Conditions

10-Day Weather Forecast

×

Almanac

Astronomy

Jun. 03, 2015 Rise Set
Actual Time
Civil Twilight
Nautical Twilight
Astronomical Twilight
Moon
Length of Visible Light
Length of Day
Tomorrow will be .
, % of the Moon is Illuminated

Today's Extremes

State Highs State Lows

Community

WunderPhotos

Upload Photos

1,826,225 photos uploaded!

WunderBlogs® & News

Nearby

Air Quality

  Air Quality AQ Index Pollutant
Not available.

Snow Depth

Station Depth Elevation

Earthquake Activity

City Distance Mag. Time & Date
Minimum magnitude displayed is 2.5.

Coastal Water Temperatures

Place Temperature

Stations

Nearby Weather Stations

Station Location Temp. Windchill Dew Point Humidity Wind Precip. Elev Updated Type